N755DL KMEM-KLAX
Flight info
| Callsign | N755DL |
|---|---|
| Flight time | 3h 19m |
| Altitude | 36000 |
| Route | DUCKZ5 HELAR DCT KLUBB DCT TCC DCT DRK DCT GABBL HLYWD1 |
| Aircraft | L101/H-SDFGHIRWXY/S |
Departure
| Time | 2026-04-22 01:00 |
|---|---|
| Airport | Memphis International Airport (KMEM) |
Arrival
| Time | 2026-04-22 04:19 |
|---|---|
| Airport | Los Angeles International Airport (KLAX) |
| Time | Latitude | Longitude | Altitude | Speed | Heading |
|---|---|---|---|---|---|
| 2026-04-22 00:20 | 35.04035 | -89.98015 | 330 ft | 0 kts | 56° |
| 2026-04-22 00:45 | 35.04029 | -89.98027 | 331 ft | 4 kts | 60° |
| 2026-04-22 00:46 | 35.04018 | -89.98056 | 331 ft | 3 kts | 83° |
| 2026-04-22 00:46 | 35.04021 | -89.98086 | 331 ft | 4 kts | 126° |
| 2026-04-22 00:46 | 35.04025 | -89.98092 | 330 ft | 8 kts | 133° |
| 2026-04-22 00:52 | 35.04024 | -89.98092 | 330 ft | 1 kts | 133° |
| 2026-04-22 00:52 | 35.04008 | -89.98071 | 331 ft | 6 kts | 134° |
| 2026-04-22 00:53 | 35.03963 | -89.98047 | 331 ft | 9 kts | 175° |
| 2026-04-22 00:53 | 35.03908 | -89.98048 | 331 ft | 6 kts | 197° |
| 2026-04-22 00:53 | 35.03886 | -89.98087 | 332 ft | 7 kts | 263° |
| 2026-04-22 00:53 | 35.03886 | -89.98158 | 333 ft | 10 kts | 270° |
| 2026-04-22 00:54 | 35.03884 | -89.98256 | 335 ft | 13 kts | 268° |
| 2026-04-22 00:54 | 35.03882 | -89.98375 | 335 ft | 13 kts | 269° |
| 2026-04-22 00:54 | 35.03883 | -89.98449 | 332 ft | 8 kts | 279° |
| 2026-04-22 00:54 | 35.03919 | -89.98493 | 333 ft | 9 kts | 346° |
| 2026-04-22 00:55 | 35.03991 | -89.98495 | 333 ft | 12 kts | 1° |
| 2026-04-22 00:55 | 35.04090 | -89.98495 | 333 ft | 16 kts | 359° |
| 2026-04-22 00:55 | 35.04357 | -89.98501 | 333 ft | 22 kts | 359° |
| 2026-04-22 00:56 | 35.04515 | -89.98503 | 331 ft | 23 kts | 358° |
| 2026-04-22 00:56 | 35.04677 | -89.98509 | 330 ft | 23 kts | 359° |
| 2026-04-22 00:56 | 35.04822 | -89.98512 | 333 ft | 19 kts | 357° |
| 2026-04-22 00:56 | 35.04911 | -89.98521 | 333 ft | 8 kts | 339° |
| 2026-04-22 00:57 | 35.04937 | -89.98577 | 332 ft | 7 kts | 260° |
| 2026-04-22 00:57 | 35.04935 | -89.98611 | 334 ft | 0 kts | 268° |
| 2026-04-22 00:57 | 35.04935 | -89.98612 | 334 ft | 0 kts | 268° |
| 2026-04-22 00:58 | 35.04934 | -89.98625 | 334 ft | 3 kts | 268° |
| 2026-04-22 00:58 | 35.04934 | -89.98653 | 334 ft | 3 kts | 268° |
| 2026-04-22 00:58 | 35.04932 | -89.98686 | 335 ft | 5 kts | 266° |
| 2026-04-22 00:58 | 35.04915 | -89.98727 | 333 ft | 7 kts | 223° |
| 2026-04-22 00:59 | 35.04852 | -89.98743 | 335 ft | 14 kts | 180° |
| 2026-04-22 00:59 | 35.04700 | -89.98739 | 334 ft | 30 kts | 178° |
| 2026-04-22 00:59 | 35.04237 | -89.98726 | 331 ft | 108 kts | 179° |
| 2026-04-22 00:59 | 35.03241 | -89.98704 | 406 ft | 172 kts | 180° |
| 2026-04-22 01:00 | 35.01927 | -89.98640 | 961 ft | 206 kts | 179° |
| 2026-04-22 01:00 | 35.00464 | -89.98530 | 1458 ft | 209 kts | 179° |
| 2026-04-22 01:00 | 34.99033 | -89.98394 | 1946 ft | 204 kts | 180° |
| 2026-04-22 01:00 | 34.97706 | -89.98270 | 2809 ft | 179 kts | 179° |
| 2026-04-22 01:01 | 34.96393 | -89.98146 | 3402 ft | 200 kts | 180° |
| 2026-04-22 01:01 | 34.94981 | -89.98021 | 3797 ft | 206 kts | 180° |
| 2026-04-22 01:01 | 34.93535 | -89.97896 | 4185 ft | 209 kts | 180° |
| 2026-04-22 01:01 | 34.92096 | -89.97914 | 4513 ft | 206 kts | 197° |
| 2026-04-22 01:02 | 34.90917 | -89.98798 | 4824 ft | 201 kts | 230° |
| 2026-04-22 01:02 | 34.90368 | -90.00346 | 5205 ft | 203 kts | 255° |
| 2026-04-22 01:02 | 34.90227 | -90.02168 | 5731 ft | 234 kts | 263° |
| 2026-04-22 01:02 | 34.90328 | -90.04263 | 6130 ft | 257 kts | 275° |
| 2026-04-22 01:03 | 34.90738 | -90.06407 | 6456 ft | 262 kts | 280° |
| 2026-04-22 01:03 | 34.91270 | -90.08540 | 6786 ft | 264 kts | 282° |
| 2026-04-22 01:03 | 34.91832 | -90.10672 | 7146 ft | 265 kts | 282° |
| 2026-04-22 01:03 | 34.92579 | -90.12755 | 7482 ft | 273 kts | 295° |
| 2026-04-22 01:04 | 34.93642 | -90.14658 | 7852 ft | 278 kts | 302° |
| 2026-04-22 01:04 | 34.94835 | -90.16532 | 8230 ft | 281 kts | 303° |
| 2026-04-22 01:04 | 34.95889 | -90.18517 | 8542 ft | 278 kts | 288° |
| 2026-04-22 01:04 | 34.96403 | -90.20744 | 8927 ft | 272 kts | 276° |
| 2026-04-22 01:05 | 34.96700 | -90.23034 | 9318 ft | 275 kts | 274° |
| 2026-04-22 01:05 | 34.96961 | -90.25354 | 9703 ft | 278 kts | 274° |
| 2026-04-22 01:05 | 34.97242 | -90.27694 | 10087 ft | 281 kts | 276° |
| 2026-04-22 01:05 | 34.97594 | -90.30046 | 10454 ft | 283 kts | 278° |
| 2026-04-22 01:06 | 34.97972 | -90.32418 | 10811 ft | 286 kts | 278° |
| 2026-04-22 01:06 | 34.98355 | -90.34803 | 11173 ft | 288 kts | 278° |
| 2026-04-22 01:06 | 34.98738 | -90.37216 | 11541 ft | 291 kts | 278° |
| 2026-04-22 01:06 | 34.99116 | -90.39650 | 11909 ft | 293 kts | 278° |
| 2026-04-22 01:07 | 34.99493 | -90.42099 | 12306 ft | 294 kts | 279° |
| 2026-04-22 01:07 | 34.99874 | -90.44616 | 12524 ft | 314 kts | 279° |
| 2026-04-22 01:07 | 35.00265 | -90.47333 | 12643 ft | 335 kts | 279° |
| 2026-04-22 01:07 | 35.00668 | -90.50209 | 12804 ft | 354 kts | 278° |
| 2026-04-22 01:08 | 35.01091 | -90.53256 | 12913 ft | 374 kts | 278° |
| 2026-04-22 01:08 | 35.01531 | -90.56449 | 13086 ft | 389 kts | 278° |
| 2026-04-22 01:08 | 35.01974 | -90.59710 | 13696 ft | 390 kts | 279° |
| 2026-04-22 01:08 | 35.02405 | -90.63006 | 14206 ft | 394 kts | 279° |
| 2026-04-22 01:09 | 35.02823 | -90.66328 | 14711 ft | 399 kts | 278° |
| 2026-04-22 01:09 | 35.03135 | -90.69696 | 15239 ft | 401 kts | 274° |
| 2026-04-22 01:09 | 35.03246 | -90.73099 | 15823 ft | 403 kts | 271° |
| 2026-04-22 01:09 | 35.03246 | -90.76533 | 16324 ft | 407 kts | 270° |
| 2026-04-22 01:10 | 35.03189 | -90.79995 | 16831 ft | 409 kts | 269° |
| 2026-04-22 01:10 | 35.03104 | -90.83473 | 17333 ft | 413 kts | 269° |
| 2026-04-22 01:10 | 35.03004 | -90.86986 | 17875 ft | 415 kts | 269° |
| 2026-04-22 01:10 | 35.02895 | -90.90524 | 18460 ft | 417 kts | 268° |
| 2026-04-22 01:11 | 35.02777 | -90.94061 | 19017 ft | 418 kts | 269° |
| 2026-04-22 01:11 | 35.02653 | -90.97631 | 19478 ft | 423 kts | 269° |
| 2026-04-22 01:11 | 35.02533 | -91.01206 | 20095 ft | 422 kts | 268° |
| 2026-04-22 01:11 | 35.02421 | -91.04753 | 20539 ft | 425 kts | 269° |
| 2026-04-22 01:12 | 35.02313 | -91.08355 | 21092 ft | 427 kts | 269° |
| 2026-04-22 01:12 | 35.02210 | -91.11981 | 21633 ft | 429 kts | 269° |
| 2026-04-22 01:12 | 35.02163 | -91.15625 | 22206 ft | 431 kts | 270° |
| 2026-04-22 01:12 | 35.02195 | -91.19306 | 22741 ft | 434 kts | 271° |
| 2026-04-22 01:13 | 35.02273 | -91.23005 | 23323 ft | 437 kts | 272° |
| 2026-04-22 01:13 | 35.02378 | -91.26720 | 23906 ft | 439 kts | 272° |
| 2026-04-22 01:13 | 35.02497 | -91.30449 | 24400 ft | 441 kts | 273° |
| 2026-04-22 01:13 | 35.02625 | -91.34194 | 24918 ft | 442 kts | 273° |
| 2026-04-22 01:14 | 35.02756 | -91.37950 | 25407 ft | 445 kts | 273° |
| 2026-04-22 01:14 | 35.02889 | -91.41755 | 25601 ft | 454 kts | 273° |
| 2026-04-22 01:14 | 35.03028 | -91.45646 | 25742 ft | 464 kts | 273° |
| 2026-04-22 01:14 | 35.03171 | -91.49626 | 25865 ft | 474 kts | 273° |
| 2026-04-22 01:15 | 35.03319 | -91.53663 | 26219 ft | 477 kts | 273° |
| 2026-04-22 01:15 | 35.03467 | -91.57694 | 26825 ft | 474 kts | 273° |
| 2026-04-22 01:15 | 35.03616 | -91.61703 | 27518 ft | 471 kts | 273° |
| 2026-04-22 01:15 | 35.03763 | -91.65678 | 28206 ft | 467 kts | 274° |
| 2026-04-22 01:16 | 35.03911 | -91.69626 | 28903 ft | 464 kts | 274° |
| 2026-04-22 01:16 | 35.04058 | -91.73544 | 29621 ft | 461 kts | 274° |
| 2026-04-22 01:16 | 35.04205 | -91.77438 | 30332 ft | 458 kts | 274° |
| 2026-04-22 01:16 | 35.04353 | -91.81310 | 30836 ft | 456 kts | 274° |
| 2026-04-22 01:17 | 35.04501 | -91.85174 | 31299 ft | 456 kts | 274° |
| 2026-04-22 01:17 | 35.04650 | -91.89033 | 31749 ft | 455 kts | 274° |
| 2026-04-22 01:17 | 35.04801 | -91.92891 | 32148 ft | 456 kts | 274° |
| 2026-04-22 01:17 | 35.04953 | -91.96766 | 32561 ft | 457 kts | 274° |
| 2026-04-22 01:18 | 35.05106 | -92.00633 | 33042 ft | 456 kts | 274° |
| 2026-04-22 01:18 | 35.05261 | -92.04501 | 33543 ft | 456 kts | 274° |
| 2026-04-22 01:18 | 35.05417 | -92.08360 | 34040 ft | 455 kts | 274° |
| 2026-04-22 01:18 | 35.05574 | -92.12208 | 34503 ft | 455 kts | 274° |
| 2026-04-22 01:19 | 35.05733 | -92.16062 | 34934 ft | 454 kts | 274° |
| 2026-04-22 01:19 | 35.05893 | -92.19912 | 35391 ft | 454 kts | 274° |
| 2026-04-22 01:19 | 35.06054 | -92.23753 | 35816 ft | 454 kts | 274° |
| 2026-04-22 01:19 | 35.06219 | -92.27624 | 36020 ft | 458 kts | 274° |
| 2026-04-22 01:20 | 35.06386 | -92.31509 | 36126 ft | 459 kts | 274° |
| 2026-04-22 01:20 | 35.06556 | -92.35398 | 36169 ft | 459 kts | 274° |
| 2026-04-22 01:20 | 35.06801 | -92.43186 | 36191 ft | 459 kts | 271° |
| 2026-04-22 01:21 | 35.06737 | -92.50977 | 36198 ft | 459 kts | 271° |
| 2026-04-22 01:21 | 35.06732 | -92.58773 | 36198 ft | 459 kts | 272° |
| 2026-04-22 01:22 | 35.06903 | -92.66557 | 36197 ft | 459 kts | 274° |
| 2026-04-22 01:22 | 35.07165 | -92.74297 | 36196 ft | 460 kts | 274° |
| 2026-04-22 01:23 | 35.07430 | -92.82121 | 36197 ft | 462 kts | 274° |
| 2026-04-22 01:23 | 35.07660 | -92.89959 | 36195 ft | 462 kts | 273° |
| 2026-04-22 01:24 | 35.07830 | -92.97798 | 36187 ft | 462 kts | 272° |
| 2026-04-22 01:24 | 35.07947 | -93.05647 | 36186 ft | 462 kts | 272° |
| 2026-04-22 01:25 | 35.08102 | -93.13503 | 36186 ft | 465 kts | 273° |
| 2026-04-22 01:25 | 35.08299 | -93.21403 | 36193 ft | 466 kts | 273° |
| 2026-04-22 01:26 | 35.08510 | -93.29305 | 36192 ft | 466 kts | 273° |
| 2026-04-22 01:26 | 35.08711 | -93.37207 | 36199 ft | 466 kts | 273° |
| 2026-04-22 01:27 | 35.08898 | -93.45110 | 36193 ft | 466 kts | 273° |
| 2026-04-22 01:27 | 35.09075 | -93.53015 | 36200 ft | 466 kts | 273° |
| 2026-04-22 01:28 | 35.09246 | -93.60870 | 36199 ft | 466 kts | 273° |
| 2026-04-22 01:28 | 35.09415 | -93.68783 | 36199 ft | 466 kts | 273° |
| 2026-04-22 01:29 | 35.09579 | -93.76695 | 36194 ft | 466 kts | 273° |
| 2026-04-22 01:29 | 35.09738 | -93.84608 | 36192 ft | 467 kts | 273° |
| 2026-04-22 01:30 | 35.09894 | -93.92545 | 36204 ft | 468 kts | 273° |
| 2026-04-22 01:30 | 35.10045 | -94.00501 | 36201 ft | 469 kts | 273° |
| 2026-04-22 01:31 | 35.10190 | -94.08456 | 36205 ft | 469 kts | 272° |
| 2026-04-22 01:31 | 35.10330 | -94.16414 | 36196 ft | 469 kts | 272° |
| 2026-04-22 01:32 | 35.10442 | -94.23025 | 36197 ft | 469 kts | 272° |
| 2026-04-22 01:32 | 35.10574 | -94.31003 | 36214 ft | 471 kts | 272° |
| 2026-04-22 01:33 | 35.10701 | -94.39004 | 36209 ft | 471 kts | 272° |
| 2026-04-22 01:33 | 35.10841 | -94.48299 | 36232 ft | 471 kts | 272° |
| 2026-04-22 01:34 | 35.10937 | -94.54998 | 36227 ft | 471 kts | 272° |
| 2026-04-22 01:34 | 35.11049 | -94.63000 | 36235 ft | 472 kts | 272° |
| 2026-04-22 01:35 | 35.11160 | -94.71038 | 36199 ft | 474 kts | 272° |
| 2026-04-22 01:35 | 35.11263 | -94.79022 | 36209 ft | 474 kts | 272° |
| 2026-04-22 01:36 | 35.11358 | -94.87066 | 36204 ft | 474 kts | 272° |
| 2026-04-22 01:36 | 35.11472 | -94.95106 | 36208 ft | 473 kts | 273° |
| 2026-04-22 01:37 | 35.11727 | -95.03150 | 36215 ft | 475 kts | 274° |
| 2026-04-22 01:37 | 35.11912 | -95.11233 | 36159 ft | 478 kts | 267° |
| 2026-04-22 01:38 | 35.11732 | -95.19326 | 36215 ft | 477 kts | 274° |
| 2026-04-22 01:38 | 35.12169 | -95.27403 | 36214 ft | 476 kts | 277° |
| 2026-04-22 01:39 | 35.12743 | -95.35458 | 36209 ft | 476 kts | 276° |
| 2026-04-22 01:39 | 35.13200 | -95.43549 | 36220 ft | 480 kts | 275° |
| 2026-04-22 01:40 | 35.13512 | -95.51736 | 36212 ft | 484 kts | 274° |
| 2026-04-22 01:40 | 35.13773 | -95.59955 | 36210 ft | 484 kts | 274° |
| 2026-04-22 01:41 | 35.14047 | -95.68116 | 36207 ft | 484 kts | 274° |
| 2026-04-22 01:41 | 35.14352 | -95.76329 | 36204 ft | 484 kts | 274° |
| 2026-04-22 01:42 | 35.14672 | -95.84557 | 36204 ft | 485 kts | 274° |
| 2026-04-22 01:42 | 35.14981 | -95.92790 | 36205 ft | 485 kts | 274° |
| 2026-04-22 01:43 | 35.15274 | -96.01025 | 36197 ft | 485 kts | 274° |
| 2026-04-22 01:43 | 35.15556 | -96.09259 | 36191 ft | 485 kts | 274° |
| 2026-04-22 01:44 | 35.15835 | -96.17508 | 36197 ft | 486 kts | 274° |
| 2026-04-22 01:44 | 35.16106 | -96.25769 | 36188 ft | 487 kts | 274° |
| 2026-04-22 01:45 | 35.16374 | -96.34036 | 36184 ft | 487 kts | 274° |
| 2026-04-22 01:45 | 35.16637 | -96.42301 | 36182 ft | 487 kts | 274° |
| 2026-04-22 01:46 | 35.16897 | -96.50567 | 36178 ft | 487 kts | 274° |
| 2026-04-22 01:46 | 35.17157 | -96.58845 | 36173 ft | 488 kts | 274° |
| 2026-04-22 01:47 | 35.17410 | -96.67127 | 36170 ft | 488 kts | 274° |
| 2026-04-22 01:47 | 35.17653 | -96.75408 | 36170 ft | 488 kts | 274° |
| 2026-04-22 01:48 | 35.17886 | -96.83695 | 36168 ft | 488 kts | 273° |
| 2026-04-22 01:48 | 35.18117 | -96.91980 | 36166 ft | 488 kts | 274° |
| 2026-04-22 01:49 | 35.18343 | -97.00282 | 36157 ft | 489 kts | 274° |
| 2026-04-22 01:49 | 35.18567 | -97.08583 | 36146 ft | 489 kts | 273° |
| 2026-04-22 01:50 | 35.18779 | -97.16888 | 36139 ft | 489 kts | 273° |
| 2026-04-22 01:50 | 35.18986 | -97.25131 | 36142 ft | 489 kts | 273° |
| 2026-04-22 01:51 | 35.19186 | -97.33435 | 36135 ft | 489 kts | 273° |
| 2026-04-22 01:51 | 35.19385 | -97.41739 | 36149 ft | 488 kts | 273° |
| 2026-04-22 01:52 | 35.19572 | -97.50042 | 36143 ft | 489 kts | 273° |
| 2026-04-22 01:52 | 35.19759 | -97.58349 | 36149 ft | 489 kts | 273° |
| 2026-04-22 01:53 | 35.19934 | -97.66671 | 36132 ft | 491 kts | 273° |
| 2026-04-22 01:53 | 35.20107 | -97.75014 | 36136 ft | 491 kts | 273° |
| 2026-04-22 01:54 | 35.20275 | -97.83369 | 36122 ft | 492 kts | 272° |
| 2026-04-22 01:54 | 35.20442 | -97.91717 | 36124 ft | 491 kts | 272° |
| 2026-04-22 01:55 | 35.20598 | -98.00066 | 36114 ft | 491 kts | 272° |
| 2026-04-22 01:55 | 35.20755 | -98.08414 | 36116 ft | 491 kts | 272° |
| 2026-04-22 01:56 | 35.20904 | -98.16762 | 36118 ft | 491 kts | 272° |
| 2026-04-22 01:56 | 35.21046 | -98.25105 | 36115 ft | 491 kts | 272° |
| 2026-04-22 01:57 | 35.21180 | -98.33453 | 36110 ft | 491 kts | 272° |
| 2026-04-22 01:57 | 35.21306 | -98.41797 | 36108 ft | 491 kts | 272° |
| 2026-04-22 01:58 | 35.21423 | -98.50168 | 36101 ft | 493 kts | 272° |
| 2026-04-22 01:58 | 35.21538 | -98.58547 | 36102 ft | 493 kts | 272° |
| 2026-04-22 01:59 | 35.21650 | -98.66920 | 36102 ft | 493 kts | 272° |
| 2026-04-22 01:59 | 35.21759 | -98.75301 | 36098 ft | 492 kts | 272° |
| 2026-04-22 02:00 | 35.21862 | -98.83621 | 36096 ft | 493 kts | 272° |
| 2026-04-22 02:00 | 35.21959 | -98.92000 | 36102 ft | 493 kts | 272° |
| 2026-04-22 02:01 | 35.22046 | -99.00378 | 36104 ft | 493 kts | 272° |
| 2026-04-22 02:01 | 35.22131 | -99.08755 | 36111 ft | 492 kts | 272° |
| 2026-04-22 02:02 | 35.22209 | -99.17132 | 36108 ft | 493 kts | 272° |
| 2026-04-22 02:02 | 35.22286 | -99.25507 | 36118 ft | 492 kts | 272° |
| 2026-04-22 02:03 | 35.22352 | -99.33878 | 36102 ft | 493 kts | 271° |
| 2026-04-22 02:03 | 35.22413 | -99.42252 | 36099 ft | 492 kts | 272° |
| 2026-04-22 02:04 | 35.22492 | -99.54821 | 36085 ft | 493 kts | 272° |
| 2026-04-22 02:05 | 35.22538 | -99.63207 | 36101 ft | 494 kts | 271° |
| 2026-04-22 02:05 | 35.22578 | -99.71599 | 36066 ft | 493 kts | 272° |
| 2026-04-22 02:06 | 35.22609 | -99.79983 | 36081 ft | 493 kts | 272° |
| 2026-04-22 02:06 | 35.22641 | -99.88375 | 36058 ft | 493 kts | 271° |
| 2026-04-22 02:07 | 35.22665 | -99.96767 | 36075 ft | 495 kts | 271° |
| 2026-04-22 02:07 | 35.22685 | -100.05169 | 36062 ft | 493 kts | 271° |
| 2026-04-22 02:08 | 35.22691 | -100.13569 | 36055 ft | 495 kts | 271° |
| 2026-04-22 02:08 | 35.22698 | -100.21966 | 36063 ft | 493 kts | 271° |
| 2026-04-22 02:09 | 35.22705 | -100.30310 | 36028 ft | 494 kts | 271° |
| 2026-04-22 02:09 | 35.22713 | -100.38697 | 36050 ft | 492 kts | 271° |
| 2026-04-22 02:10 | 35.22701 | -100.47092 | 36025 ft | 494 kts | 270° |
| 2026-04-22 02:10 | 35.22685 | -100.55483 | 36040 ft | 493 kts | 271° |
| 2026-04-22 02:11 | 35.22659 | -100.63879 | 36021 ft | 494 kts | 271° |
| 2026-04-22 02:11 | 35.22641 | -100.72263 | 36008 ft | 493 kts | 271° |
| 2026-04-22 02:12 | 35.22611 | -100.80647 | 36024 ft | 492 kts | 271° |
| 2026-04-22 02:12 | 35.22572 | -100.89019 | 36023 ft | 493 kts | 271° |
| 2026-04-22 02:13 | 35.22525 | -100.97398 | 36020 ft | 492 kts | 270° |
| 2026-04-22 02:13 | 35.22469 | -101.05774 | 36018 ft | 493 kts | 270° |
| 2026-04-22 02:14 | 35.22410 | -101.14165 | 35997 ft | 492 kts | 270° |
| 2026-04-22 02:14 | 35.22343 | -101.22547 | 36017 ft | 493 kts | 270° |
| 2026-04-22 02:15 | 35.22278 | -101.30927 | 35999 ft | 492 kts | 270° |
| 2026-04-22 02:15 | 35.22215 | -101.39310 | 36008 ft | 494 kts | 270° |
| 2026-04-22 02:16 | 35.22151 | -101.47704 | 36046 ft | 493 kts | 270° |
| 2026-04-22 02:16 | 35.22066 | -101.56057 | 36051 ft | 495 kts | 270° |
| 2026-04-22 02:17 | 35.21972 | -101.64454 | 36066 ft | 493 kts | 270° |
| 2026-04-22 02:17 | 35.21873 | -101.72854 | 36068 ft | 493 kts | 269° |
| 2026-04-22 02:18 | 35.21786 | -101.81219 | 36072 ft | 492 kts | 270° |
| 2026-04-22 02:18 | 35.21685 | -101.89590 | 36042 ft | 491 kts | 269° |
| 2026-04-22 02:19 | 35.21568 | -101.97956 | 36022 ft | 493 kts | 269° |
| 2026-04-22 02:19 | 35.21444 | -102.06336 | 35974 ft | 492 kts | 269° |
| 2026-04-22 02:20 | 35.21320 | -102.14688 | 35950 ft | 490 kts | 269° |
| 2026-04-22 02:20 | 35.21193 | -102.23012 | 35940 ft | 489 kts | 269° |
| 2026-04-22 02:21 | 35.21056 | -102.31339 | 35941 ft | 490 kts | 269° |
| 2026-04-22 02:21 | 35.20913 | -102.39598 | 35953 ft | 489 kts | 269° |
| 2026-04-22 02:22 | 35.20764 | -102.47924 | 35925 ft | 489 kts | 269° |
| 2026-04-22 02:22 | 35.20616 | -102.56217 | 35931 ft | 487 kts | 269° |
| 2026-04-22 02:23 | 35.20458 | -102.64505 | 35922 ft | 487 kts | 269° |
| 2026-04-22 02:23 | 35.20293 | -102.72786 | 35924 ft | 488 kts | 268° |
| 2026-04-22 02:24 | 35.20120 | -102.81072 | 35917 ft | 487 kts | 269° |
| 2026-04-22 02:24 | 35.19968 | -102.87935 | 35921 ft | 485 kts | 268° |
| 2026-04-22 02:25 | 35.19783 | -102.96179 | 35906 ft | 485 kts | 269° |
| 2026-04-22 02:25 | 35.19595 | -103.04415 | 35906 ft | 485 kts | 269° |
| 2026-04-22 02:26 | 35.19404 | -103.12650 | 35890 ft | 484 kts | 268° |
| 2026-04-22 02:26 | 35.19203 | -103.20863 | 35895 ft | 482 kts | 269° |
| 2026-04-22 02:27 | 35.18994 | -103.29038 | 35920 ft | 481 kts | 268° |
| 2026-04-22 02:27 | 35.18779 | -103.37206 | 35945 ft | 481 kts | 268° |
| 2026-04-22 02:28 | 35.18566 | -103.45372 | 35968 ft | 481 kts | 268° |
| 2026-04-22 02:28 | 35.18349 | -103.53536 | 35991 ft | 480 kts | 268° |
| 2026-04-22 02:29 | 35.18130 | -103.61669 | 35982 ft | 478 kts | 268° |
| 2026-04-22 02:29 | 35.17958 | -103.69784 | 35987 ft | 477 kts | 269° |
| 2026-04-22 02:30 | 35.17828 | -103.77896 | 35954 ft | 477 kts | 269° |
| 2026-04-22 02:30 | 35.17697 | -103.85997 | 35938 ft | 477 kts | 269° |
| 2026-04-22 02:31 | 35.17555 | -103.94084 | 35889 ft | 474 kts | 269° |
| 2026-04-22 02:31 | 35.17399 | -104.02132 | 35861 ft | 474 kts | 269° |
| 2026-04-22 02:32 | 35.17228 | -104.10176 | 35855 ft | 473 kts | 269° |
| 2026-04-22 02:32 | 35.17051 | -104.18220 | 35847 ft | 474 kts | 268° |
| 2026-04-22 02:33 | 35.16871 | -104.26257 | 35857 ft | 472 kts | 268° |
| 2026-04-22 02:33 | 35.16696 | -104.34261 | 35845 ft | 470 kts | 268° |
| 2026-04-22 02:34 | 35.16512 | -104.42229 | 35862 ft | 469 kts | 268° |
| 2026-04-22 02:34 | 35.16319 | -104.50157 | 35848 ft | 470 kts | 268° |
| 2026-04-22 02:35 | 35.16119 | -104.58184 | 35853 ft | 470 kts | 268° |
| 2026-04-22 02:35 | 35.15916 | -104.66114 | 35860 ft | 470 kts | 268° |
| 2026-04-22 02:36 | 35.15705 | -104.74083 | 35864 ft | 470 kts | 268° |
| 2026-04-22 02:36 | 35.15488 | -104.82063 | 35914 ft | 469 kts | 268° |
| 2026-04-22 02:37 | 35.15267 | -104.90030 | 35907 ft | 470 kts | 268° |
| 2026-04-22 02:37 | 35.15043 | -104.98008 | 35876 ft | 469 kts | 268° |
| 2026-04-22 02:38 | 35.14816 | -105.05963 | 35874 ft | 468 kts | 268° |
| 2026-04-22 02:38 | 35.14582 | -105.13909 | 35897 ft | 468 kts | 268° |
| 2026-04-22 02:39 | 35.14341 | -105.21858 | 35916 ft | 468 kts | 268° |
| 2026-04-22 02:39 | 35.14095 | -105.29802 | 35925 ft | 468 kts | 267° |
| 2026-04-22 02:40 | 35.13853 | -105.37728 | 35941 ft | 466 kts | 267° |
| 2026-04-22 02:40 | 35.13609 | -105.45622 | 35938 ft | 465 kts | 267° |
| 2026-04-22 02:41 | 35.13351 | -105.53512 | 35966 ft | 465 kts | 267° |
| 2026-04-22 02:41 | 35.13087 | -105.61403 | 35959 ft | 465 kts | 267° |
| 2026-04-22 02:42 | 35.12821 | -105.69294 | 35965 ft | 465 kts | 267° |
| 2026-04-22 02:42 | 35.12551 | -105.77163 | 35977 ft | 463 kts | 267° |
| 2026-04-22 02:43 | 35.12273 | -105.85023 | 35965 ft | 463 kts | 267° |
| 2026-04-22 02:43 | 35.11989 | -105.92887 | 35964 ft | 463 kts | 267° |
| 2026-04-22 02:44 | 35.11699 | -106.00746 | 35962 ft | 463 kts | 267° |
| 2026-04-22 02:44 | 35.11404 | -106.08594 | 35957 ft | 462 kts | 267° |
| 2026-04-22 02:45 | 35.11105 | -106.16424 | 35948 ft | 461 kts | 267° |
| 2026-04-22 02:45 | 35.10803 | -106.24196 | 35963 ft | 461 kts | 267° |
| 2026-04-22 02:46 | 35.10495 | -106.32019 | 35999 ft | 461 kts | 266° |
| 2026-04-22 02:46 | 35.10179 | -106.39841 | 36024 ft | 461 kts | 266° |
| 2026-04-22 02:47 | 35.09855 | -106.47642 | 36058 ft | 459 kts | 266° |
| 2026-04-22 02:47 | 35.09530 | -106.55428 | 36081 ft | 459 kts | 266° |
| 2026-04-22 02:48 | 35.09204 | -106.63208 | 36081 ft | 459 kts | 266° |
| 2026-04-22 02:48 | 35.08880 | -106.70996 | 36111 ft | 459 kts | 266° |
| 2026-04-22 02:49 | 35.08549 | -106.78767 | 36112 ft | 458 kts | 266° |
| 2026-04-22 02:49 | 35.08209 | -106.86523 | 36106 ft | 457 kts | 266° |
| 2026-04-22 02:49 | 35.08038 | -106.90400 | 35876 ft | 457 kts | 266° |
| 2026-04-22 02:50 | 35.07865 | -106.94274 | 35867 ft | 457 kts | 266° |
| 2026-04-22 02:50 | 35.07512 | -107.02023 | 35866 ft | 457 kts | 266° |
| 2026-04-22 02:51 | 35.07157 | -107.09768 | 35867 ft | 456 kts | 267° |
| 2026-04-22 02:51 | 35.06778 | -107.17482 | 35870 ft | 455 kts | 266° |
| 2026-04-22 02:52 | 35.06401 | -107.25136 | 35878 ft | 455 kts | 266° |
| 2026-04-22 02:52 | 35.06026 | -107.32838 | 35886 ft | 454 kts | 266° |
| 2026-04-22 02:53 | 35.05651 | -107.40536 | 35884 ft | 455 kts | 268° |
| 2026-04-22 02:53 | 35.05237 | -107.48216 | 35896 ft | 452 kts | 267° |
| 2026-04-22 02:54 | 35.04810 | -107.55853 | 35898 ft | 451 kts | 267° |
| 2026-04-22 02:54 | 35.04397 | -107.63483 | 35904 ft | 450 kts | 267° |
| 2026-04-22 02:55 | 35.04003 | -107.71113 | 35903 ft | 451 kts | 267° |
| 2026-04-22 02:55 | 35.03616 | -107.78739 | 35906 ft | 450 kts | 267° |
| 2026-04-22 02:56 | 35.03233 | -107.86346 | 35910 ft | 449 kts | 267° |
| 2026-04-22 02:56 | 35.02838 | -107.93940 | 35912 ft | 448 kts | 267° |
| 2026-04-22 02:57 | 35.02432 | -108.01529 | 35906 ft | 448 kts | 267° |
| 2026-04-22 02:57 | 35.02018 | -108.09121 | 35917 ft | 448 kts | 267° |
| 2026-04-22 02:58 | 35.01602 | -108.16718 | 35920 ft | 449 kts | 267° |
| 2026-04-22 02:58 | 35.01182 | -108.24307 | 35927 ft | 448 kts | 267° |
| 2026-04-22 02:59 | 35.00758 | -108.31899 | 35923 ft | 448 kts | 267° |
| 2026-04-22 02:59 | 35.00328 | -108.39482 | 35927 ft | 448 kts | 267° |
| 2026-04-22 03:00 | 34.99896 | -108.47068 | 35922 ft | 448 kts | 267° |
| 2026-04-22 03:00 | 34.99466 | -108.54639 | 35929 ft | 447 kts | 266° |
| 2026-04-22 03:01 | 34.99028 | -108.62146 | 35932 ft | 447 kts | 266° |
| 2026-04-22 03:01 | 34.98590 | -108.69704 | 35929 ft | 447 kts | 267° |
| 2026-04-22 03:02 | 34.98155 | -108.77265 | 35924 ft | 447 kts | 266° |
| 2026-04-22 03:02 | 34.97703 | -108.84818 | 35902 ft | 446 kts | 266° |
| 2026-04-22 03:03 | 34.97247 | -108.92337 | 35915 ft | 445 kts | 266° |
| 2026-04-22 03:03 | 34.96785 | -108.99853 | 35926 ft | 444 kts | 266° |
| 2026-04-22 03:04 | 34.96317 | -109.07366 | 35917 ft | 445 kts | 266° |
| 2026-04-22 03:04 | 34.95846 | -109.14883 | 35930 ft | 445 kts | 265° |
| 2026-04-22 03:05 | 34.95405 | -109.22394 | 35922 ft | 444 kts | 265° |
| 2026-04-22 03:05 | 34.94957 | -109.29900 | 35919 ft | 444 kts | 265° |
| 2026-04-22 03:06 | 34.94482 | -109.37404 | 35923 ft | 444 kts | 265° |
| 2026-04-22 03:06 | 34.93988 | -109.44901 | 35925 ft | 444 kts | 265° |
| 2026-04-22 03:07 | 34.93503 | -109.52401 | 35924 ft | 443 kts | 265° |
| 2026-04-22 03:07 | 34.93036 | -109.59890 | 35921 ft | 443 kts | 265° |
| 2026-04-22 03:08 | 34.92551 | -109.67381 | 35927 ft | 443 kts | 264° |
| 2026-04-22 03:08 | 34.92045 | -109.74865 | 35925 ft | 443 kts | 264° |
| 2026-04-22 03:09 | 34.91528 | -109.82348 | 35937 ft | 443 kts | 264° |
| 2026-04-22 03:09 | 34.91032 | -109.89822 | 35931 ft | 442 kts | 264° |
| 2026-04-22 03:10 | 34.90534 | -109.97287 | 35938 ft | 442 kts | 264° |
| 2026-04-22 03:10 | 34.90017 | -110.04746 | 35938 ft | 442 kts | 264° |
| 2026-04-22 03:11 | 34.89488 | -110.12152 | 35944 ft | 442 kts | 264° |
| 2026-04-22 03:11 | 34.89046 | -110.18397 | 35944 ft | 441 kts | 263° |
| 2026-04-22 03:12 | 34.88541 | -110.25820 | 35955 ft | 439 kts | 263° |
| 2026-04-22 03:12 | 34.87756 | -110.36941 | 35960 ft | 439 kts | 263° |
| 2026-04-22 03:13 | 34.87207 | -110.44350 | 35959 ft | 439 kts | 263° |
| 2026-04-22 03:13 | 34.86657 | -110.51754 | 35959 ft | 438 kts | 263° |
| 2026-04-22 03:14 | 34.86121 | -110.59103 | 35959 ft | 434 kts | 263° |
| 2026-04-22 03:14 | 34.85576 | -110.66420 | 36061 ft | 434 kts | 263° |
| 2026-04-22 03:15 | 34.85025 | -110.73692 | 36059 ft | 434 kts | 263° |
| 2026-04-22 03:15 | 34.84464 | -110.81010 | 36042 ft | 434 kts | 263° |
| 2026-04-22 03:16 | 34.83892 | -110.88351 | 36040 ft | 436 kts | 263° |
| 2026-04-22 03:16 | 34.83315 | -110.95716 | 36025 ft | 437 kts | 263° |
| 2026-04-22 03:17 | 34.82734 | -111.03083 | 36016 ft | 437 kts | 263° |
| 2026-04-22 03:17 | 34.82150 | -111.10454 | 36005 ft | 437 kts | 263° |
| 2026-04-22 03:18 | 34.81565 | -111.17822 | 36014 ft | 438 kts | 263° |
| 2026-04-22 03:18 | 34.80982 | -111.25216 | 36009 ft | 440 kts | 263° |
| 2026-04-22 03:19 | 34.80386 | -111.32631 | 36011 ft | 440 kts | 262° |
| 2026-04-22 03:19 | 34.79783 | -111.40028 | 36021 ft | 440 kts | 262° |
| 2026-04-22 03:20 | 34.79174 | -111.47433 | 36002 ft | 440 kts | 262° |
| 2026-04-22 03:20 | 34.78558 | -111.54837 | 36003 ft | 440 kts | 262° |
| 2026-04-22 03:21 | 34.77943 | -111.62242 | 36080 ft | 440 kts | 262° |
| 2026-04-22 03:21 | 34.77325 | -111.69644 | 36091 ft | 440 kts | 262° |
| 2026-04-22 03:22 | 34.76702 | -111.77047 | 36099 ft | 440 kts | 262° |
| 2026-04-22 03:22 | 34.76078 | -111.84435 | 36094 ft | 437 kts | 262° |
| 2026-04-22 03:23 | 34.75476 | -111.91757 | 36081 ft | 433 kts | 262° |
| 2026-04-22 03:23 | 34.74864 | -111.99044 | 36049 ft | 433 kts | 262° |
| 2026-04-22 03:24 | 34.74235 | -112.06326 | 36028 ft | 433 kts | 262° |
| 2026-04-22 03:24 | 34.73598 | -112.13614 | 36045 ft | 434 kts | 262° |
| 2026-04-22 03:25 | 34.72969 | -112.20868 | 36042 ft | 428 kts | 261° |
| 2026-04-22 03:25 | 34.72357 | -112.28007 | 36086 ft | 427 kts | 261° |
| 2026-04-22 03:26 | 34.71725 | -112.35193 | 36106 ft | 427 kts | 261° |
| 2026-04-22 03:26 | 34.71075 | -112.42375 | 36110 ft | 427 kts | 261° |
| 2026-04-22 03:27 | 34.70412 | -112.49554 | 36111 ft | 428 kts | 261° |
| 2026-04-22 03:27 | 34.70043 | -112.53145 | 35952 ft | 429 kts | 260° |
| 2026-04-22 03:27 | 34.69639 | -112.56734 | 35951 ft | 429 kts | 259° |
| 2026-04-22 03:28 | 34.68782 | -112.63907 | 35939 ft | 429 kts | 259° |
| 2026-04-22 03:28 | 34.67926 | -112.71080 | 35942 ft | 429 kts | 259° |
| 2026-04-22 03:29 | 34.67093 | -112.78261 | 35943 ft | 429 kts | 259° |
| 2026-04-22 03:29 | 34.66289 | -112.85445 | 35928 ft | 429 kts | 259° |
| 2026-04-22 03:30 | 34.65490 | -112.92635 | 35931 ft | 429 kts | 259° |
| 2026-04-22 03:30 | 34.64672 | -112.99814 | 35925 ft | 429 kts | 259° |
| 2026-04-22 03:31 | 34.63834 | -113.06987 | 35926 ft | 429 kts | 259° |
| 2026-04-22 03:31 | 34.62986 | -113.14146 | 35911 ft | 428 kts | 259° |
| 2026-04-22 03:32 | 34.62145 | -113.21272 | 35905 ft | 425 kts | 259° |
| 2026-04-22 03:32 | 34.61316 | -113.28370 | 35895 ft | 425 kts | 259° |
| 2026-04-22 03:33 | 34.60478 | -113.35452 | 35895 ft | 424 kts | 259° |
| 2026-04-22 03:33 | 34.59632 | -113.42535 | 35888 ft | 424 kts | 258° |
| 2026-04-22 03:34 | 34.58789 | -113.49609 | 35888 ft | 422 kts | 258° |
| 2026-04-22 03:34 | 34.57950 | -113.56642 | 35881 ft | 421 kts | 258° |
| 2026-04-22 03:35 | 34.57105 | -113.63663 | 35879 ft | 421 kts | 258° |
| 2026-04-22 03:35 | 34.56246 | -113.70678 | 35881 ft | 420 kts | 258° |
| 2026-04-22 03:36 | 34.55383 | -113.77691 | 35884 ft | 420 kts | 258° |
| 2026-04-22 03:36 | 34.54531 | -113.84670 | 35872 ft | 417 kts | 258° |
| 2026-04-22 03:37 | 34.53677 | -113.91627 | 35871 ft | 417 kts | 258° |
| 2026-04-22 03:37 | 34.52812 | -113.98578 | 35878 ft | 417 kts | 258° |
| 2026-04-22 03:38 | 34.51945 | -114.05526 | 35882 ft | 417 kts | 257° |
| 2026-04-22 03:38 | 34.50781 | -114.12324 | 35892 ft | 413 kts | 253° |
| 2026-04-22 03:39 | 34.49240 | -114.19007 | 35906 ft | 411 kts | 251° |
| 2026-04-22 03:39 | 34.47644 | -114.25671 | 35906 ft | 411 kts | 252° |
| 2026-04-22 03:40 | 34.46142 | -114.32364 | 35908 ft | 412 kts | 253° |
| 2026-04-22 03:40 | 34.44718 | -114.39086 | 35872 ft | 412 kts | 253° |
| 2026-04-22 03:41 | 34.43319 | -114.45800 | 35851 ft | 411 kts | 253° |
| 2026-04-22 03:41 | 34.41906 | -114.52492 | 35864 ft | 410 kts | 253° |
| 2026-04-22 03:42 | 34.40471 | -114.59175 | 35861 ft | 410 kts | 252° |
| 2026-04-22 03:42 | 34.39026 | -114.65850 | 35862 ft | 410 kts | 252° |
| 2026-04-22 03:43 | 34.37577 | -114.72525 | 35868 ft | 410 kts | 252° |
| 2026-04-22 03:43 | 34.36125 | -114.79197 | 35879 ft | 410 kts | 252° |
| 2026-04-22 03:44 | 34.34676 | -114.85878 | 35865 ft | 411 kts | 252° |
| 2026-04-22 03:44 | 34.33217 | -114.92557 | 35868 ft | 410 kts | 252° |
| 2026-04-22 03:45 | 34.31756 | -114.99225 | 35867 ft | 410 kts | 252° |
| 2026-04-22 03:45 | 34.30300 | -115.05885 | 35870 ft | 409 kts | 252° |
| 2026-04-22 03:46 | 34.28862 | -115.12485 | 35865 ft | 409 kts | 252° |
| 2026-04-22 03:46 | 34.27406 | -115.19120 | 35882 ft | 408 kts | 252° |
| 2026-04-22 03:47 | 34.25947 | -115.25754 | 35873 ft | 408 kts | 252° |
| 2026-04-22 03:47 | 34.24530 | -115.32400 | 35887 ft | 409 kts | 253° |
| 2026-04-22 03:48 | 34.23825 | -115.35741 | 35718 ft | 409 kts | 253° |
| 2026-04-22 03:48 | 34.23132 | -115.39029 | 35502 ft | 399 kts | 253° |
| 2026-04-22 03:48 | 34.22456 | -115.42238 | 35312 ft | 391 kts | 252° |
| 2026-04-22 03:48 | 34.21784 | -115.45417 | 35117 ft | 390 kts | 252° |
| 2026-04-22 03:49 | 34.21110 | -115.48590 | 34872 ft | 391 kts | 252° |
| 2026-04-22 03:49 | 34.20428 | -115.51773 | 34576 ft | 392 kts | 252° |
| 2026-04-22 03:49 | 34.19743 | -115.54955 | 34294 ft | 391 kts | 252° |
| 2026-04-22 03:49 | 34.19056 | -115.58135 | 34011 ft | 392 kts | 252° |
| 2026-04-22 03:50 | 34.18366 | -115.61317 | 33702 ft | 392 kts | 252° |
| 2026-04-22 03:50 | 34.17674 | -115.64506 | 33431 ft | 393 kts | 252° |
| 2026-04-22 03:50 | 34.16972 | -115.67692 | 33106 ft | 393 kts | 252° |
| 2026-04-22 03:50 | 34.16315 | -115.70884 | 32771 ft | 392 kts | 256° |
| 2026-04-22 03:51 | 34.15855 | -115.74134 | 32463 ft | 394 kts | 259° |
| 2026-04-22 03:51 | 34.15553 | -115.77382 | 32199 ft | 395 kts | 261° |
| 2026-04-22 03:51 | 34.15334 | -115.80734 | 32013 ft | 396 kts | 262° |
| 2026-04-22 03:51 | 34.15147 | -115.84049 | 31974 ft | 396 kts | 262° |
| 2026-04-22 03:52 | 34.14688 | -115.90833 | 31970 ft | 413 kts | 261° |
| 2026-04-22 03:52 | 34.14057 | -115.97742 | 32000 ft | 415 kts | 260° |
| 2026-04-22 03:53 | 34.13335 | -116.04611 | 32016 ft | 416 kts | 259° |
| 2026-04-22 03:53 | 34.12604 | -116.11538 | 32018 ft | 416 kts | 260° |
| 2026-04-22 03:54 | 34.11897 | -116.18467 | 32021 ft | 416 kts | 260° |
| 2026-04-22 03:54 | 34.11212 | -116.25401 | 31941 ft | 416 kts | 260° |
| 2026-04-22 03:55 | 34.10522 | -116.32375 | 31957 ft | 423 kts | 260° |
| 2026-04-22 03:55 | 34.10150 | -116.35922 | 31624 ft | 425 kts | 260° |
| 2026-04-22 03:55 | 34.09772 | -116.39410 | 31250 ft | 412 kts | 259° |
| 2026-04-22 03:56 | 34.09405 | -116.42759 | 30892 ft | 395 kts | 259° |
| 2026-04-22 03:56 | 34.09049 | -116.46001 | 30542 ft | 386 kts | 259° |
| 2026-04-22 03:56 | 34.08697 | -116.49195 | 30186 ft | 384 kts | 259° |
| 2026-04-22 03:56 | 34.08344 | -116.52387 | 29804 ft | 384 kts | 259° |
| 2026-04-22 03:57 | 34.07991 | -116.55573 | 29355 ft | 382 kts | 259° |
| 2026-04-22 03:57 | 34.07635 | -116.58742 | 28916 ft | 380 kts | 260° |
| 2026-04-22 03:57 | 34.07278 | -116.61892 | 28484 ft | 378 kts | 261° |
| 2026-04-22 03:57 | 34.06947 | -116.65033 | 28082 ft | 377 kts | 261° |
| 2026-04-22 03:58 | 34.06636 | -116.68159 | 27656 ft | 374 kts | 262° |
| 2026-04-22 03:58 | 34.06340 | -116.71266 | 27250 ft | 372 kts | 262° |
| 2026-04-22 03:58 | 34.06150 | -116.73314 | 26983 ft | 371 kts | 262° |
| 2026-04-22 03:58 | 34.05867 | -116.76383 | 26603 ft | 366 kts | 262° |
| 2026-04-22 03:59 | 34.05585 | -116.79437 | 26202 ft | 366 kts | 262° |
| 2026-04-22 03:59 | 34.05301 | -116.82479 | 25811 ft | 364 kts | 262° |
| 2026-04-22 03:59 | 34.05014 | -116.85504 | 25419 ft | 362 kts | 262° |
| 2026-04-22 03:59 | 34.04723 | -116.88509 | 25089 ft | 359 kts | 262° |
| 2026-04-22 04:00 | 34.04409 | -116.91483 | 24569 ft | 357 kts | 261° |
| 2026-04-22 04:00 | 34.04048 | -116.94430 | 23980 ft | 352 kts | 260° |
| 2026-04-22 04:00 | 34.03665 | -116.97321 | 23375 ft | 347 kts | 260° |
| 2026-04-22 04:00 | 34.03279 | -117.00173 | 22726 ft | 343 kts | 260° |
| 2026-04-22 04:01 | 34.02900 | -117.03003 | 22089 ft | 340 kts | 260° |
| 2026-04-22 04:01 | 34.02535 | -117.05808 | 21447 ft | 337 kts | 260° |
| 2026-04-22 04:01 | 34.02185 | -117.08588 | 20821 ft | 335 kts | 261° |
| 2026-04-22 04:01 | 34.01845 | -117.11355 | 20218 ft | 332 kts | 261° |
| 2026-04-22 04:02 | 34.01513 | -117.14097 | 19620 ft | 329 kts | 261° |
| 2026-04-22 04:02 | 34.01186 | -117.16820 | 19034 ft | 327 kts | 261° |
| 2026-04-22 04:02 | 34.00860 | -117.19525 | 18514 ft | 325 kts | 260° |
| 2026-04-22 04:02 | 34.00539 | -117.22205 | 17870 ft | 323 kts | 260° |
| 2026-04-22 04:03 | 34.00221 | -117.24883 | 17216 ft | 321 kts | 260° |
| 2026-04-22 04:03 | 33.99910 | -117.27534 | 16584 ft | 319 kts | 260° |
| 2026-04-22 04:03 | 33.99603 | -117.30167 | 15965 ft | 315 kts | 260° |
| 2026-04-22 04:03 | 33.99303 | -117.32776 | 15353 ft | 314 kts | 260° |
| 2026-04-22 04:04 | 33.99013 | -117.35349 | 14755 ft | 306 kts | 260° |
| 2026-04-22 04:04 | 33.98734 | -117.37855 | 14171 ft | 298 kts | 260° |
| 2026-04-22 04:04 | 33.98460 | -117.40303 | 13564 ft | 292 kts | 260° |
| 2026-04-22 04:04 | 33.98191 | -117.42706 | 12921 ft | 288 kts | 260° |
| 2026-04-22 04:05 | 33.97921 | -117.45097 | 12295 ft | 288 kts | 260° |
| 2026-04-22 04:05 | 33.97648 | -117.47495 | 11672 ft | 288 kts | 260° |
| 2026-04-22 04:05 | 33.97537 | -117.49895 | 11022 ft | 282 kts | 270° |
| 2026-04-22 04:05 | 33.97769 | -117.52096 | 9691 ft | 262 kts | 277° |
| 2026-04-22 04:06 | 33.98173 | -117.54207 | 8867 ft | 251 kts | 280° |
| 2026-04-22 04:06 | 33.98641 | -117.56332 | 8129 ft | 277 kts | 281° |
| 2026-04-22 04:06 | 33.99145 | -117.58673 | 8800 ft | 290 kts | 281° |
| 2026-04-22 04:06 | 33.99663 | -117.61054 | 10166 ft | 309 kts | 280° |
| 2026-04-22 04:07 | 34.00232 | -117.63622 | 10662 ft | 311 kts | 281° |
| 2026-04-22 04:07 | 34.00789 | -117.65998 | 10932 ft | 279 kts | 280° |
| 2026-04-22 04:07 | 34.01113 | -117.68245 | 10721 ft | 268 kts | 270° |
| 2026-04-22 04:07 | 34.01157 | -117.70478 | 10286 ft | 265 kts | 265° |
| 2026-04-22 04:08 | 34.01078 | -117.72680 | 9788 ft | 261 kts | 262° |
| 2026-04-22 04:08 | 34.00905 | -117.74810 | 9345 ft | 257 kts | 261° |
| 2026-04-22 04:08 | 34.00698 | -117.76945 | 9152 ft | 257 kts | 260° |
| 2026-04-22 04:08 | 34.00461 | -117.79082 | 9054 ft | 257 kts | 259° |
| 2026-04-22 04:09 | 34.00200 | -117.81144 | 8977 ft | 240 kts | 258° |
| 2026-04-22 04:09 | 33.99939 | -117.83104 | 8603 ft | 232 kts | 258° |
| 2026-04-22 04:09 | 33.99688 | -117.84955 | 8215 ft | 218 kts | 258° |
| 2026-04-22 04:09 | 33.99443 | -117.86721 | 7819 ft | 209 kts | 258° |
| 2026-04-22 04:10 | 33.99190 | -117.88435 | 7475 ft | 208 kts | 255° |
| 2026-04-22 04:10 | 33.98792 | -117.90127 | 7228 ft | 211 kts | 254° |
| 2026-04-22 04:10 | 33.98502 | -117.91863 | 7109 ft | 212 kts | 260° |
| 2026-04-22 04:10 | 33.98317 | -117.93630 | 7051 ft | 213 kts | 262° |
| 2026-04-22 04:11 | 33.98149 | -117.95411 | 7029 ft | 214 kts | 262° |
| 2026-04-22 04:11 | 33.97969 | -117.97197 | 7027 ft | 215 kts | 261° |
| 2026-04-22 04:11 | 33.97785 | -117.98983 | 7024 ft | 215 kts | 261° |
| 2026-04-22 04:11 | 33.97600 | -118.00761 | 7010 ft | 215 kts | 261° |
| 2026-04-22 04:12 | 33.97412 | -118.02581 | 6596 ft | 221 kts | 262° |
| 2026-04-22 04:12 | 33.97221 | -118.04413 | 6017 ft | 220 kts | 262° |
| 2026-04-22 04:12 | 33.97033 | -118.06230 | 5529 ft | 214 kts | 263° |
| 2026-04-22 04:12 | 33.96855 | -118.07970 | 5093 ft | 207 kts | 263° |
| 2026-04-22 04:13 | 33.96683 | -118.09676 | 4727 ft | 199 kts | 264° |
| 2026-04-22 04:13 | 33.96517 | -118.11301 | 4376 ft | 192 kts | 263° |
| 2026-04-22 04:13 | 33.96354 | -118.12872 | 4082 ft | 186 kts | 264° |
| 2026-04-22 04:13 | 33.96198 | -118.14389 | 3830 ft | 178 kts | 264° |
| 2026-04-22 04:14 | 33.96049 | -118.15843 | 3633 ft | 172 kts | 264° |
| 2026-04-22 04:14 | 33.95905 | -118.17257 | 3674 ft | 168 kts | 264° |
| 2026-04-22 04:14 | 33.95761 | -118.18675 | 3794 ft | 175 kts | 264° |
| 2026-04-22 04:14 | 33.95609 | -118.20151 | 3632 ft | 179 kts | 264° |
| 2026-04-22 04:15 | 33.95453 | -118.21654 | 3251 ft | 181 kts | 264° |
| 2026-04-22 04:15 | 33.95300 | -118.23149 | 2822 ft | 179 kts | 264° |
| 2026-04-22 04:15 | 33.95147 | -118.24625 | 2408 ft | 176 kts | 264° |
| 2026-04-22 04:15 | 33.95000 | -118.26052 | 2142 ft | 165 kts | 264° |
| 2026-04-22 04:16 | 33.94863 | -118.27402 | 2017 ft | 160 kts | 264° |
| 2026-04-22 04:16 | 33.94597 | -118.29972 | 1500 ft | 152 kts | 264° |
| 2026-04-22 04:16 | 33.94468 | -118.31242 | 1387 ft | 154 kts | 264° |
| 2026-04-22 04:17 | 33.94344 | -118.32537 | 1339 ft | 155 kts | 257° |
| 2026-04-22 04:17 | 33.94203 | -118.33848 | 1028 ft | 159 kts | 265° |
| 2026-04-22 04:17 | 33.94059 | -118.35118 | 637 ft | 151 kts | 264° |
| 2026-04-22 04:17 | 33.93941 | -118.36368 | 469 ft | 150 kts | 263° |
| 2026-04-22 04:18 | 33.93814 | -118.37609 | 248 ft | 149 kts | 263° |
| 2026-04-22 04:18 | 33.93682 | -118.38814 | 100 ft | 132 kts | 263° |
| 2026-04-22 04:18 | 33.93592 | -118.39703 | 101 ft | 86 kts | 261° |
| 2026-04-22 04:18 | 33.93534 | -118.40310 | 102 ft | 63 kts | 264° |
| 2026-04-22 04:19 | 33.93481 | -118.40770 | 98 ft | 48 kts | 264° |
| 2026-04-22 04:19 | 33.93492 | -118.41017 | 100 ft | 23 kts | 284° |
| 2026-04-22 04:19 | 33.93533 | -118.41151 | 102 ft | 17 kts | 285° |
| 2026-04-22 04:19 | 33.93543 | -118.41215 | 100 ft | 0 kts | 277° |